createdAt,value
2023-05-21T00:01:42.552Z,99570.16
2023-05-21T00:04:09.644Z,99575.97
2023-05-21T00:06:36.420Z,99568.28
2023-05-21T00:09:04.487Z,99576.81
2023-05-21T00:11:31.685Z,99572.25
2023-05-21T00:13:58.884Z,99573.91
2023-05-21T00:16:26.002Z,99572.09
2023-05-21T00:18:54.722Z,99572.50
2023-05-21T00:21:25.923Z,99557.63
2023-05-21T00:23:56.555Z,99562.59
2023-05-21T00:26:26.399Z,99562.19
2023-05-21T00:28:57.152Z,99560.13
2023-05-21T00:31:24.140Z,99564.28
2023-05-21T00:33:51.051Z,99545.84
2023-05-21T00:36:17.867Z,99557.66
2023-05-21T00:38:45.685Z,99544.56
2023-05-21T00:41:13.026Z,99547.06
2023-05-21T00:43:41.935Z,99538.56
2023-05-21T00:46:16.504Z,99547.47
2023-05-21T00:48:45.162Z,99547.28
2023-05-21T00:51:16.706Z,99544.97
2023-05-21T00:53:44.692Z,99539.59
2023-05-21T00:56:11.549Z,99540.81
2023-05-21T00:58:39.496Z,99536.47
2023-05-21T01:01:07.114Z,99535.84
2023-05-21T01:03:38.327Z,99535.66
2023-05-21T01:06:06.413Z,99529.81
2023-05-21T01:08:34.907Z,99531.69
2023-05-21T01:11:02.653Z,99535.22
2023-05-21T01:13:29.678Z,99534.59
2023-05-21T01:15:58.598Z,99527.75
2023-05-21T01:18:26.206Z,99528.13
2023-05-21T01:20:53.730Z,99527.72
2023-05-21T01:23:21.128Z,99519.66
2023-05-21T01:25:47.960Z,99519.66
2023-05-21T01:28:14.993Z,99525.22
2023-05-21T01:30:42.896Z,99519.00
2023-05-21T01:33:27.046Z,99518.56
2023-05-21T01:35:56.730Z,99520.25
2023-05-21T01:38:31.274Z,99522.09
2023-05-21T01:41:10.918Z,99516.91
2023-05-21T01:43:39.613Z,99520.84
2023-05-21T01:46:08.143Z,99521.69
2023-05-21T01:48:36.316Z,99519.59
2023-05-21T01:51:05.424Z,99519.19
2023-05-21T01:53:32.198Z,99516.09
2023-05-21T01:55:59.360Z,99516.72
2023-05-21T01:58:26.507Z,99520.22
2023-05-21T02:00:53.346Z,99511.94
2023-05-21T02:03:20.735Z,99521.47
2023-05-21T02:05:47.739Z,99512.75
2023-05-21T02:08:19.583Z,99508.59
2023-05-21T02:10:46.381Z,99511.50
2023-05-21T02:13:13.322Z,99516.84
2023-05-21T02:15:40.247Z,99513.28
2023-05-21T02:18:07.190Z,99513.13
2023-05-21T02:20:34.175Z,99520.81
2023-05-21T02:23:01.222Z,99522.66
2023-05-21T02:25:28.198Z,99511.47
2023-05-21T02:27:56.623Z,99507.97
2023-05-21T02:30:23.845Z,99502.56
2023-05-21T02:32:50.999Z,99508.78
2023-05-21T02:35:18.085Z,99504.44
2023-05-21T02:37:45.075Z,99504.44
2023-05-21T02:40:12.061Z,99510.00
2023-05-21T02:42:41.424Z,99499.88
2023-05-21T02:45:12.965Z,99507.56
2023-05-21T02:47:42.160Z,99508.59
2023-05-21T02:50:09.369Z,99506.50
2023-05-21T02:52:43.461Z,99512.88
2023-05-21T02:55:10.277Z,99508.53
2023-05-21T02:57:37.286Z,99500.66
2023-05-21T03:00:06.060Z,99506.50
2023-05-21T03:02:33.289Z,99506.03
2023-05-21T03:05:00.679Z,99513.09
2023-05-21T03:07:27.645Z,99505.81
2023-05-21T03:09:54.854Z,99504.41
2023-05-21T03:12:22.097Z,99503.13
2023-05-21T03:14:51.482Z,99501.66
2023-05-21T03:17:20.601Z,99499.41
2023-05-21T03:19:49.133Z,99502.06
2023-05-21T03:22:16.185Z,99497.75
2023-05-21T03:24:45.099Z,99505.78
2023-05-21T03:27:12.382Z,99496.66
2023-05-21T03:29:40.094Z,99501.81
2023-05-21T03:32:08.067Z,99495.44
2023-05-21T03:34:35.602Z,99505.16
2023-05-21T03:37:03.343Z,99493.34
2023-05-21T03:39:31.456Z,99492.94
2023-05-21T03:41:59.145Z,99497.91
2023-05-21T03:44:41.684Z,99498.50
2023-05-21T03:47:27.406Z,99497.91
2023-05-21T03:49:54.920Z,99498.50
2023-05-21T03:52:21.739Z,99494.56
2023-05-21T03:54:48.627Z,99497.25
2023-05-21T03:57:15.857Z,99504.09
2023-05-21T03:59:43.644Z,99500.38
2023-05-21T04:02:10.692Z,99503.47
2023-05-21T04:04:37.807Z,99495.78
2023-05-21T04:07:05.401Z,99503.47
2023-05-21T04:09:32.177Z,99502.19
2023-05-21T04:11:58.935Z,99504.69
2023-05-21T04:14:25.833Z,99502.41
2023-05-21T04:16:52.887Z,99504.44
2023-05-21T04:19:21.033Z,99519.13
2023-05-21T04:21:48.950Z,99508.53
2023-05-21T04:24:16.257Z,99513.56
2023-05-21T04:27:01.125Z,99519.53
2023-05-21T04:29:31.358Z,99524.31
2023-05-21T04:31:58.880Z,99516.97
2023-05-21T04:34:25.860Z,99520.97
2023-05-21T04:36:52.692Z,99524.50
2023-05-21T04:39:19.647Z,99525.13
2023-05-21T04:41:46.588Z,99535.31
2023-05-21T04:44:14.876Z,99540.69
2023-05-21T04:46:46.327Z,99528.72
2023-05-21T04:49:13.637Z,99533.44
2023-05-21T04:51:40.435Z,99524.56
2023-05-21T04:54:07.983Z,99531.19
2023-05-21T04:56:35.728Z,99535.31
2023-05-21T04:59:05.561Z,99530.53
2023-05-21T05:01:35.421Z,99529.72
2023-05-21T05:04:02.351Z,99531.19
2023-05-21T05:06:29.699Z,99529.09
2023-05-21T05:08:56.691Z,99535.56
2023-05-21T05:11:23.890Z,99539.50
2023-05-21T05:13:51.068Z,99534.34
2023-05-21T05:16:24.698Z,99529.56
2023-05-21T05:18:52.713Z,99535.97
2023-05-21T05:21:21.866Z,99532.88
2023-05-21T05:23:48.714Z,99541.53
2023-05-21T05:26:15.846Z,99539.94
2023-05-21T05:28:42.842Z,99534.16
2023-05-21T05:31:09.802Z,99537.88
2023-05-21T05:33:36.720Z,99540.97
2023-05-21T05:36:03.741Z,99531.66
2023-05-21T05:38:31.133Z,99538.50
2023-05-21T05:40:57.990Z,99530.44
2023-05-21T05:43:26.388Z,99530.25
2023-05-21T05:45:53.539Z,99538.75
2023-05-21T05:48:20.789Z,99528.81
2023-05-21T05:50:48.285Z,99532.13
2023-05-21T05:53:15.411Z,99522.00
2023-05-21T05:55:42.591Z,99530.13
2023-05-21T05:58:09.547Z,99525.97
2023-05-21T06:00:48.842Z,99534.25
2023-05-21T06:03:16.177Z,99531.19
2023-05-21T06:05:43.217Z,99538.03
2023-05-21T06:08:10.877Z,99528.13
2023-05-21T06:10:37.835Z,99531.69
2023-05-21T06:13:04.699Z,99536.44
2023-05-21T06:15:31.507Z,99526.09
2023-05-21T06:17:58.300Z,99531.06
2023-05-21T06:20:25.078Z,99529.81
2023-05-21T06:22:53.361Z,99521.97
2023-05-21T06:25:20.481Z,99524.03
2023-05-21T06:27:47.417Z,99523.19
2023-05-21T06:30:20.075Z,99527.53
2023-05-21T06:32:47.071Z,99512.44
2023-05-21T06:35:14.918Z,99518.47
2023-05-21T06:37:43.017Z,99529.22
2023-05-21T06:40:10.273Z,99538.13
2023-05-21T06:42:37.910Z,99520.94
2023-05-21T06:45:37.137Z,99524.47
2023-05-21T06:48:24.423Z,99521.59
2023-05-21T06:50:51.450Z,99522.59
2023-05-21T06:53:18.684Z,99530.91
2023-05-21T06:55:45.998Z,99530.34
2023-05-21T06:58:22.288Z,99534.72
2023-05-21T07:00:49.345Z,99526.22
2023-05-21T07:03:16.355Z,99535.34
2023-05-21T07:05:43.282Z,99520.19
2023-05-21T07:08:12.189Z,99527.06
2023-05-21T07:10:39.295Z,99525.81
2023-05-21T07:13:06.159Z,99528.50
2023-05-21T07:15:33.047Z,99528.13
2023-05-21T07:18:02.321Z,99520.88
2023-05-21T07:20:29.382Z,99522.94
2023-05-21T07:22:59.370Z,99528.97
2023-05-21T07:25:26.099Z,99527.31
2023-05-21T07:27:53.028Z,99526.09
2023-05-21T07:30:20.793Z,99529.00
2023-05-21T07:32:47.674Z,99529.81
2023-05-21T07:35:14.750Z,99520.50
2023-05-21T07:37:41.911Z,99523.19
2023-05-21T07:40:10.026Z,99513.44
2023-05-21T07:42:37.307Z,99517.22
2023-05-21T07:45:04.595Z,99520.31
2023-05-21T07:47:36.335Z,99515.53
2023-05-21T07:50:03.252Z,99507.84
2023-05-21T07:52:30.210Z,99514.28
2023-05-21T07:54:57.053Z,99513.28
2023-05-21T07:57:25.726Z,99526.13
2023-05-21T07:59:59.624Z,99514.94
2023-05-21T08:02:26.931Z,99523.00
2023-05-21T08:04:55.101Z,99509.34
2023-05-21T08:07:22.134Z,99513.69
2023-05-21T08:09:48.986Z,99511.19
2023-05-21T08:12:16.016Z,99512.19
2023-05-21T08:14:43.752Z,99515.53
2023-05-21T08:17:12.616Z,99512.19
2023-05-21T08:19:39.564Z,99511.38
2023-05-21T08:22:06.957Z,99502.84
2023-05-21T08:24:35.579Z,99502.03
2023-05-21T08:27:02.345Z,99494.13
2023-05-21T08:29:31.798Z,99502.44
2023-05-21T08:31:59.763Z,99507.00
2023-05-21T08:34:26.666Z,99502.81
2023-05-21T08:37:05.541Z,99504.28
2023-05-21T08:39:58.412Z,99510.53
2023-05-21T08:42:37.603Z,99513.22
2023-05-21T08:45:07.148Z,99513.41
2023-05-21T08:47:37.255Z,99502.41
2023-05-21T08:50:16.378Z,99507.59
2023-05-21T08:52:43.149Z,99508.59
2023-05-21T08:55:10.711Z,99501.13
2023-05-21T08:57:42.739Z,99505.50
2023-05-21T09:00:11.882Z,99507.56
2023-05-21T09:02:43.634Z,99508.16
2023-05-21T09:05:11.783Z,99505.06
2023-05-21T09:08:11.548Z,99512.16
2023-05-21T09:10:51.833Z,99506.50
2023-05-21T09:13:21.666Z,99502.75
2023-05-21T09:15:51.471Z,99506.50
2023-05-21T09:18:19.425Z,99497.34
2023-05-21T09:20:59.589Z,99499.25
2023-05-21T09:23:28.764Z,99496.97
2023-05-21T09:25:55.524Z,99506.28
2023-05-21T09:28:28.173Z,99501.78
2023-05-21T09:30:54.968Z,99496.72
2023-05-21T09:33:27.314Z,99499.63
2023-05-21T09:35:54.549Z,99505.03
2023-05-21T09:38:25.881Z,99496.47
2023-05-21T09:40:55.068Z,99494.81
2023-05-21T09:43:22.796Z,99499.00
2023-05-21T09:45:58.907Z,99487.97
2023-05-21T09:48:42.857Z,99513.72
2023-05-21T09:51:18.572Z,99504.16
2023-05-21T09:53:50.024Z,99502.72
2023-05-21T09:56:18.928Z,99504.53
2023-05-21T09:58:46.363Z,99496.63
2023-05-21T10:01:13.577Z,99506.16
2023-05-21T10:03:40.921Z,99499.28
2023-05-21T10:06:11.604Z,99499.50
2023-05-21T10:08:43.515Z,99505.31
2023-05-21T10:11:10.737Z,99503.81
2023-05-21T10:13:39.827Z,99493.63
2023-05-21T10:16:08.010Z,99492.56
2023-05-21T10:18:49.518Z,99494.69
2023-05-21T10:21:16.546Z,99496.31
2023-05-21T10:23:44.064Z,99489.41
2023-05-21T10:26:11.322Z,99490.63
2023-05-21T10:28:38.108Z,99489.16
2023-05-21T10:31:05.070Z,99493.06
2023-05-21T10:33:32.157Z,99496.19
2023-05-21T10:35:59.602Z,99490.34
2023-05-21T10:38:27.834Z,99491.78
2023-05-21T10:40:55.902Z,99494.22
2023-05-21T10:44:03.754Z,99490.97
2023-05-21T10:46:53.114Z,99491.31
2023-05-21T10:49:38.405Z,99485.75
2023-05-21T10:52:20.332Z,99487.56
2023-05-21T10:55:41.444Z,99486.53
2023-05-21T10:58:31.609Z,99481.94
2023-05-21T11:00:59.389Z,99474.38
2023-05-21T11:03:26.434Z,99478.97
2023-05-21T11:05:56.292Z,99478.34
2023-05-21T11:08:36.077Z,99483.31
2023-05-21T11:11:03.899Z,99481.22
2023-05-21T11:13:50.276Z,99484.19
2023-05-21T11:16:17.728Z,99481.16
2023-05-21T11:18:47.436Z,99477.03
2023-05-21T11:21:18.552Z,99479.44
2023-05-21T11:23:52.381Z,99476.97
2023-05-21T11:26:20.841Z,99472.94
2023-05-21T11:28:50.844Z,99468.72
2023-05-21T11:31:25.840Z,99464.72
2023-05-21T11:34:11.237Z,99463.91
2023-05-21T11:36:39.446Z,99453.19
2023-05-21T11:39:21.901Z,99459.63
2023-05-21T11:41:58.254Z,99462.28
2023-05-21T11:44:44.553Z,99451.97
2023-05-21T11:47:12.628Z,99453.97
2023-05-21T11:49:39.559Z,99456.66
2023-05-21T11:52:08.270Z,99454.31
2023-05-21T11:54:40.957Z,99453.72
2023-05-21T11:57:07.997Z,99457.63
2023-05-21T11:59:35.733Z,99460.13
2023-05-21T12:02:03.440Z,99449.31
2023-05-21T12:04:37.551Z,99452.75
2023-05-21T12:07:07.762Z,99447.47
2023-05-21T12:09:45.282Z,99450.44
2023-05-21T12:12:14.533Z,99450.38
2023-05-21T12:14:45.482Z,99457.00
2023-05-21T12:17:13.531Z,99449.69
2023-05-21T12:19:41.116Z,99440.91
2023-05-21T12:22:08.632Z,99433.97
2023-05-21T12:24:37.182Z,99439.63
2023-05-21T12:27:09.541Z,99447.28
2023-05-21T12:29:38.260Z,99435.16
2023-05-21T12:32:07.374Z,99432.00
2023-05-21T12:34:44.935Z,99427.44
2023-05-21T12:37:14.598Z,99432.13
2023-05-21T12:39:45.200Z,99428.13
2023-05-21T12:42:12.334Z,99426.84
2023-05-21T12:44:46.522Z,99454.09
2023-05-21T12:47:13.846Z,99428.53
2023-05-21T12:49:42.909Z,99433.69
2023-05-21T12:52:11.578Z,99430.56
2023-05-21T12:54:39.846Z,99434.09
2023-05-21T12:57:21.152Z,99426.63
2023-05-21T12:59:47.993Z,99416.75
2023-05-21T13:02:25.115Z,99419.25
2023-05-21T13:05:02.028Z,99423.84
2023-05-21T13:07:30.939Z,99418.94
2023-05-21T13:09:58.141Z,99416.56
2023-05-21T13:12:27.070Z,99419.41
2023-05-21T13:14:55.406Z,99417.91
2023-05-21T13:17:22.600Z,99432.88
2023-05-21T13:20:08.911Z,99420.50
2023-05-21T13:22:39.070Z,99435.97
2023-05-21T13:25:07.199Z,99433.97
2023-05-21T13:27:34.023Z,99426.66
2023-05-21T13:30:01.974Z,99430.78
2023-05-21T13:32:29.262Z,99422.88
2023-05-21T13:34:56.196Z,99423.00
2023-05-21T13:37:22.901Z,99426.31
2023-05-21T13:39:49.753Z,99428.38
2023-05-21T13:42:17.728Z,99427.69
2023-05-21T13:44:44.491Z,99425.78
2023-05-21T13:47:12.029Z,99424.72
2023-05-21T13:49:39.481Z,99440.53
2023-05-21T13:52:07.648Z,99429.69
2023-05-21T13:54:34.783Z,99429.69
2023-05-21T13:57:01.780Z,99436.16
2023-05-21T13:59:29.643Z,99439.13
2023-05-21T14:01:58.145Z,99433.69
2023-05-21T14:04:25.062Z,99433.56
2023-05-21T14:06:52.360Z,99434.03
2023-05-21T14:09:19.355Z,99426.72
2023-05-21T14:11:46.445Z,99421.22
2023-05-21T14:14:18.700Z,99424.16
2023-05-21T14:16:47.150Z,99430.78
2023-05-21T14:19:14.335Z,99414.63
2023-05-21T14:21:41.356Z,99421.00
2023-05-21T14:24:08.303Z,99427.38
2023-05-21T14:26:36.766Z,99435.03
2023-05-21T14:29:03.452Z,99432.69
2023-05-21T14:31:30.181Z,99426.19
2023-05-21T14:33:56.935Z,99435.66
2023-05-21T14:36:23.708Z,99427.25
2023-05-21T14:38:50.613Z,99435.16
2023-05-21T14:41:17.354Z,99434.09
2023-05-21T14:43:44.219Z,99438.00
2023-05-21T14:46:11.198Z,99428.66
2023-05-21T14:48:37.930Z,99439.66
2023-05-21T14:51:04.752Z,99433.66
2023-05-21T14:53:32.222Z,99430.69
2023-05-21T14:55:59.132Z,99415.47
2023-05-21T14:58:26.044Z,99423.13
2023-05-21T15:00:52.822Z,99417.50
2023-05-21T15:03:19.793Z,99416.19
2023-05-21T15:05:46.638Z,99421.03
2023-05-21T15:08:13.432Z,99423.13
2023-05-21T15:10:40.285Z,99405.34
2023-05-21T15:13:09.202Z,99415.72
2023-05-21T15:15:36.456Z,99424.22
2023-05-21T15:18:03.466Z,99417.75
2023-05-21T15:20:30.294Z,99408.53
2023-05-21T15:23:15.370Z,99416.19
2023-05-21T15:25:43.257Z,99416.44
2023-05-21T15:28:10.067Z,99417.50
2023-05-21T15:30:36.942Z,99413.16
2023-05-21T15:33:03.726Z,99414.22
2023-05-21T15:35:30.631Z,99410.66
2023-05-21T15:37:58.983Z,99403.59
2023-05-21T16:01:54.433Z,99400.72
2023-05-21T16:04:21.295Z,99403.19
2023-05-21T16:06:48.126Z,99397.53
2023-05-21T16:09:15.429Z,99400.25
2023-05-21T16:11:44.737Z,99393.19
2023-05-21T16:14:12.031Z,99392.59
2023-05-21T16:16:38.991Z,99403.19
2023-05-21T16:19:06.088Z,99397.19
2023-05-21T16:21:33.049Z,99393.88
2023-05-21T16:24:00.551Z,99395.31
2023-05-21T16:26:27.404Z,99399.31
2023-05-21T16:28:54.154Z,99393.28
2023-05-21T16:31:21.133Z,99396.00
2023-05-21T16:33:47.980Z,99394.94
2023-05-21T16:36:16.301Z,99399.31
2023-05-21T16:38:44.647Z,99396.59
2023-05-21T16:41:11.508Z,99394.94
2023-05-21T16:43:38.306Z,99399.53
2023-05-21T16:46:05.390Z,99392.47
2023-05-21T16:48:32.799Z,99390.25
2023-05-21T16:51:02.353Z,99393.50
2023-05-21T16:53:29.191Z,99394.00
2023-05-21T16:55:56.013Z,99393.78
2023-05-21T16:58:22.837Z,99391.53
2023-05-21T17:00:49.708Z,99388.81
2023-05-21T17:03:17.037Z,99396.47
2023-05-21T17:05:44.142Z,99397.78
2023-05-21T17:08:10.901Z,99394.00
2023-05-21T17:10:37.782Z,99401.31
2023-05-21T17:13:17.483Z,99390.69
2023-05-21T17:15:44.995Z,99398.00
2023-05-21T17:18:12.053Z,99399.31
2023-05-21T17:20:38.991Z,99397.66
2023-05-21T17:23:05.819Z,99397.88
2023-05-21T17:25:34.378Z,99391.03
2023-05-21T17:28:01.631Z,99394.25
2023-05-21T17:30:28.439Z,99391.75
2023-05-21T17:32:55.382Z,99400.13
2023-05-21T17:35:22.271Z,99392.22
2023-05-21T17:37:49.499Z,99397.31
2023-05-21T17:40:20.252Z,99389.28
2023-05-21T17:42:47.405Z,99400.94
2023-05-21T17:45:14.212Z,99402.22
2023-05-21T17:47:41.164Z,99395.38
2023-05-21T17:50:08.556Z,99396.69
2023-05-21T17:52:35.372Z,99396.34
2023-05-21T17:55:03.245Z,99405.75
2023-05-21T17:57:30.620Z,99397.03
2023-05-21T17:59:57.444Z,99402.72
2023-05-21T18:02:24.362Z,99406.94
2023-05-21T18:04:51.222Z,99404.91
2023-05-21T18:07:17.964Z,99410.13
2023-05-21T18:09:45.325Z,99408.69
2023-05-21T18:12:12.098Z,99402.69
2023-05-21T18:14:38.858Z,99406.88
2023-05-21T18:17:05.988Z,99411.25
2023-05-21T18:19:32.976Z,99410.03
2023-05-21T18:21:59.942Z,99404.88
2023-05-21T18:24:26.726Z,99412.16
2023-05-21T18:26:53.655Z,99410.97
2023-05-21T18:29:20.410Z,99411.44
2023-05-21T18:31:47.531Z,99404.56
2023-05-21T18:34:15.513Z,99406.94
2023-05-21T18:36:42.649Z,99410.47
2023-05-21T18:39:09.719Z,99405.50
2023-05-21T18:41:37.414Z,99412.22
2023-05-21T18:44:05.974Z,99408.91
2023-05-21T18:46:33.125Z,99415.00
2023-05-21T18:49:00.758Z,99411.94
2023-05-21T18:51:27.734Z,99418.28
2023-05-21T18:53:55.129Z,99420.75
2023-05-21T18:56:22.638Z,99427.72
2023-05-21T18:58:49.518Z,99421.91
2023-05-21T19:01:17.713Z,99421.09
2023-05-21T19:03:44.452Z,99416.59
2023-05-21T19:06:11.188Z,99433.06
2023-05-21T19:08:38.017Z,99424.78
2023-05-21T19:11:05.326Z,99431.84
2023-05-21T19:13:32.237Z,99431.50
2023-05-21T19:15:59.100Z,99433.84
2023-05-21T19:18:30.364Z,99425.94
2023-05-21T19:20:57.590Z,99438.03
2023-05-21T19:23:25.006Z,99428.69
2023-05-21T19:25:51.802Z,99432.25
2023-05-21T19:28:18.883Z,99434.34
2023-05-21T19:30:46.426Z,99442.66
2023-05-21T19:33:13.577Z,99447.25
2023-05-21T19:35:41.938Z,99447.94
2023-05-21T19:38:11.628Z,99450.50
2023-05-21T19:40:38.768Z,99451.75
2023-05-21T19:43:05.789Z,99457.84
2023-05-21T19:45:32.721Z,99456.66
2023-05-21T19:48:00.041Z,99449.22
2023-05-21T19:50:28.849Z,99459.78
2023-05-21T19:52:57.267Z,99464.38
2023-05-21T19:55:24.844Z,99461.47
2023-05-21T19:57:51.975Z,99454.22
2023-05-21T20:00:19.262Z,99459.41
2023-05-21T20:02:46.339Z,99474.84
2023-05-21T20:05:13.691Z,99465.28
2023-05-21T20:07:41.439Z,99466.78
2023-05-21T20:10:08.790Z,99466.16
2023-05-21T20:12:36.088Z,99476.78
2023-05-21T20:15:03.446Z,99466.41
2023-05-21T20:17:30.698Z,99465.34
2023-05-21T20:19:59.109Z,99465.59
2023-05-21T20:22:25.981Z,99469.94
2023-05-21T20:24:53.176Z,99468.06
2023-05-21T20:27:20.385Z,99473.47
2023-05-21T20:29:47.098Z,99468.50
2023-05-21T20:32:13.897Z,99466.63
2023-05-21T20:34:54.362Z,99469.78
2023-05-21T20:37:28.432Z,99469.81
2023-05-21T20:39:57.750Z,99474.03
2023-05-21T20:42:28.504Z,99470.34
2023-05-21T20:44:58.811Z,99461.63
2023-05-21T20:47:29.843Z,99468.75
2023-05-21T20:50:00.033Z,99473.09
2023-05-21T20:52:27.227Z,99465.19
2023-05-21T20:54:54.844Z,99470.03
2023-05-21T20:57:25.965Z,99473.38
2023-05-21T20:59:53.394Z,99470.69
2023-05-21T21:02:20.657Z,99468.38
2023-05-21T21:04:49.143Z,99478.16
2023-05-21T21:07:18.077Z,99472.94
2023-05-21T21:09:46.595Z,99472.78
2023-05-21T21:12:24.646Z,99478.25
2023-05-21T21:14:52.386Z,99480.34
2023-05-21T21:17:19.394Z,99479.34
2023-05-21T21:19:46.172Z,99478.13
2023-05-21T21:22:12.945Z,99487.94
2023-05-21T21:24:39.789Z,99489.19
2023-05-21T21:27:06.746Z,99490.22
2023-05-21T21:29:33.546Z,99493.97
2023-05-21T21:32:00.261Z,99492.34
2023-05-21T21:34:27.021Z,99481.13
2023-05-21T21:36:54.444Z,99482.78
2023-05-21T21:39:21.261Z,99484.47
2023-05-21T21:41:47.983Z,99489.03
2023-05-21T21:44:14.737Z,99477.03
2023-05-21T21:46:41.606Z,99474.75
2023-05-21T21:49:08.397Z,99472.72
2023-05-21T21:51:35.327Z,99488.69
2023-05-21T21:54:02.232Z,99480.41
2023-05-21T21:56:29.667Z,99485.59
2023-05-21T21:58:56.439Z,99483.16
2023-05-21T22:01:23.227Z,99487.88
2023-05-21T22:03:50.269Z,99488.56
2023-05-21T22:06:17.087Z,99487.53
2023-05-21T22:08:44.184Z,99487.72
2023-05-21T22:11:11.580Z,99485.69
2023-05-21T22:13:38.479Z,99489.38
2023-05-21T22:16:05.621Z,99486.69
2023-05-21T22:18:40.914Z,99482.97
2023-05-21T22:21:10.126Z,99489.19
2023-05-21T22:23:38.083Z,99486.94
2023-05-21T22:26:04.943Z,99482.56
2023-05-21T22:28:31.742Z,99492.53
2023-05-21T22:30:58.924Z,99483.59
2023-05-21T22:33:26.601Z,99480.69
2023-05-21T22:35:54.180Z,99489.63
2023-05-21T22:38:21.482Z,99485.28
2023-05-21T22:40:48.444Z,99484.41
2023-05-21T22:43:15.237Z,99488.38
2023-05-21T22:45:42.245Z,99483.66
2023-05-21T22:48:09.474Z,99485.94
2023-05-21T22:50:38.857Z,99480.94
2023-05-21T22:53:06.633Z,99490.50
2023-05-21T22:55:33.594Z,99486.34
2023-05-21T22:58:00.528Z,99481.78
2023-05-21T23:00:27.472Z,99485.72
2023-05-21T23:02:54.968Z,99484.28
2023-05-21T23:05:22.435Z,99488.00
2023-05-21T23:07:49.479Z,99485.34
2023-05-21T23:10:16.269Z,99484.72
2023-05-21T23:12:43.032Z,99488.69
2023-05-21T23:15:10.839Z,99487.44
2023-05-21T23:17:38.099Z,99491.19
2023-05-21T23:20:06.156Z,99489.75
2023-05-21T23:22:32.958Z,99488.09
2023-05-21T23:24:59.739Z,99495.56
2023-05-21T23:27:26.530Z,99489.56
2023-05-21T23:29:53.436Z,99485.84
2023-05-21T23:32:20.347Z,99488.09
2023-05-21T23:34:47.237Z,99492.44
2023-05-21T23:37:14.100Z,99499.34
2023-05-21T23:39:40.932Z,99499.72
2023-05-21T23:42:07.743Z,99500.34
2023-05-21T23:44:34.732Z,99498.28
2023-05-21T23:47:01.640Z,99507.63
2023-05-21T23:49:28.398Z,99498.09
2023-05-21T23:51:55.446Z,99510.13
2023-05-21T23:54:22.416Z,99504.31
2023-05-21T23:56:49.293Z,99502.22
2023-05-21T23:59:18.351Z,99493.94
